Time;durP1;ratioP1;P1;durP2;ratioP2;P2;SDS_P1;SDS_P2;PMS_P1;PMS_P2;Temp;Humidity;BMP_temperature;BMP_pressure;BME280_temperature;BME280_humidity;BME280_pressure;Samples;Min_cycle;Max_cycle;Signal;HPM_P1;HPM_P2
2024/01/14 00:01:15;;;;;;;;;;;15.70;55.40;;;;;;7395041;19;1477;-72
2024/01/14 00:03:41;;;;;;;;;;;15.70;55.40;;;;;;7393748;19;1010;-75
2024/01/14 00:06:06;;;;;;;;;;;15.70;55.40;;;;;;7399859;19;1637;-72
2024/01/14 00:08:32;;;;;;;;;;;15.70;55.50;;;;;;7392563;19;1383;-72
2024/01/14 00:10:57;;;;;;;;;;;15.60;55.40;;;;;;7393297;19;1184;-72
2024/01/14 00:13:23;;;;;;;;;;;15.70;55.60;;;;;;7397657;19;1507;-72
2024/01/14 00:15:48;;;;;;;;;;;15.60;55.50;;;;;;7393814;19;1221;-72
2024/01/14 00:18:14;;;;;;;;;;;15.60;55.60;;;;;;7392697;19;1837;-72
2024/01/14 00:20:39;;;;;;;;;;;15.60;55.60;;;;;;7394356;19;3122;-72
2024/01/14 00:23:05;;;;;;;;;;;15.60;55.60;;;;;;7398015;19;1415;-72
2024/01/14 00:25:31;;;;;;;;;;;15.60;55.60;;;;;;7395319;19;926;-72
2024/01/14 00:27:56;;;;;;;;;;;15.60;55.60;;;;;;7395419;19;1537;-73
2024/01/14 00:30:22;;;;;;;;;;;15.50;56.30;;;;;;7395118;19;807;-72
2024/01/14 00:32:47;;;;;;;;;;;15.50;55.60;;;;;;7397891;19;1485;-72
2024/01/14 00:35:13;;;;;;;;;;;15.50;55.70;;;;;;7392683;19;865;-72
2024/01/14 00:37:38;;;;;;;;;;;15.50;55.80;;;;;;7391770;19;1844;-72
2024/01/14 00:40:07;;;;;;;;;;;15.50;55.80;;;;;;7395106;19;2309;-72
2024/01/14 00:42:33;;;;;;;;;;;15.50;55.80;;;;;;7393727;19;1503;-72
2024/01/14 00:44:58;;;;;;;;;;;15.50;55.80;;;;;;7393216;19;1075;-72
2024/01/14 00:47:24;;;;;;;;;;;15.50;55.80;;;;;;7394970;19;1567;-72
2024/01/14 00:49:49;;;;;;;;;;;15.40;55.80;;;;;;7394622;19;1513;-72
2024/01/14 00:52:15;;;;;;;;;;;15.40;55.80;;;;;;7393921;19;811;-72
2024/01/14 00:54:40;;;;;;;;;;;15.40;55.80;;;;;;7394102;19;974;-72
2024/01/14 00:57:07;;;;;;;;;;;15.40;55.90;;;;;;7393036;19;1847;-72
2024/01/14 00:59:33;;;;;;;;;;;15.40;55.90;;;;;;7392722;19;1189;-72
2024/01/14 01:01:58;;;;;;;;;;;15.40;55.90;;;;;;7396052;19;1692;-72
2024/01/14 01:04:24;;;;;;;;;;;15.40;55.80;;;;;;7392148;19;1555;-72
2024/01/14 01:06:49;;;;;;;;;;;15.30;55.90;;;;;;7396622;19;1681;-72
2024/01/14 01:09:15;;;;;;;;;;;15.30;55.90;;;;;;7390353;19;1387;-72
2024/01/14 01:11:40;;;;;;;;;;;15.30;56.00;;;;;;7390305;19;1136;-72
2024/01/14 01:14:06;;;;;;;;;;;15.30;56.00;;;;;;7395360;19;1543;-72
2024/01/14 01:16:31;;;;;;;;;;;15.30;56.00;;;;;;7393567;19;1861;-72
2024/01/14 01:18:57;;;;;;;;;;;15.30;56.00;;;;;;7393627;19;1473;-72
2024/01/14 01:21:22;;;;;;;;;;;15.30;56.00;;;;;;7392052;19;1233;-72
2024/01/14 01:23:48;;;;;;;;;;;15.20;56.00;;;;;;7396155;19;1528;-72
2024/01/14 01:26:13;;;;;;;;;;;15.20;55.90;;;;;;7394125;19;930;-72
2024/01/14 01:28:39;;;;;;;;;;;15.20;56.00;;;;;;7402263;19;1513;-72
2024/01/14 01:31:04;;;;;;;;;;;15.20;56.00;;;;;;7403241;19;1568;-72
2024/01/14 01:33:30;;;;;;;;;;;15.20;56.10;;;;;;7400636;19;1005;-72
2024/01/14 01:35:55;;;;;;;;;;;15.20;56.00;;;;;;7407004;19;1383;-72
2024/01/14 01:38:21;;;;;;;;;;;15.20;56.10;;;;;;7404481;19;1863;-72
2024/01/14 01:40:47;;;;;;;;;;;15.20;56.20;;;;;;7398986;19;902;-72
2024/01/14 01:43:13;;;;;;;;;;;15.20;56.20;;;;;;7399626;19;1522;-72
2024/01/14 01:45:38;;;;;;;;;;;15.20;56.20;;;;;;7399926;19;1556;-72
2024/01/14 01:48:04;;;;;;;;;;;15.10;56.00;;;;;;7399937;19;1509;-72
2024/01/14 01:50:30;;;;;;;;;;;15.10;56.80;;;;;;7399188;19;1246;-72
2024/01/14 01:52:55;;;;;;;;;;;15.10;56.40;;;;;;7400297;19;1504;-72
2024/01/14 01:55:21;;;;;;;;;;;15.10;56.30;;;;;;7398759;19;788;-72
2024/01/14 01:57:46;;;;;;;;;;;15.10;56.30;;;;;;7400268;19;1848;-72
2024/01/14 02:00:12;;;;;;;;;;;15.10;56.40;;;;;;7401380;19;1603;-72
2024/01/14 02:02:39;;;;;;;;;;;15.10;56.30;;;;;;7402199;19;1188;-72
2024/01/14 02:05:05;;;;;;;;;;;15.10;56.40;;;;;;7397723;19;1492;-72
2024/01/14 02:07:30;;;;;;;;;;;15.10;56.40;;;;;;7401717;19;1630;-72
2024/01/14 02:09:55;;;;;;;;;;;15.00;56.20;;;;;;7397219;19;1066;-72
2024/01/14 02:12:21;;;;;;;;;;;15.00;56.10;;;;;;7397401;19;962;-72
2024/01/14 02:14:46;;;;;;;;;;;15.10;56.10;;;;;;7400982;19;1639;-72
2024/01/14 02:17:12;;;;;;;;;;;15.10;56.00;;;;;;7399907;19;1853;-72
2024/01/14 02:19:37;;;;;;;;;;;15.20;56.00;;;;;;7399615;19;1470;-72
2024/01/14 02:22:09;;;;;;;;;;;15.30;55.90;;;;;;7401951;19;1823;-72
2024/01/14 02:24:34;;;;;;;;;;;15.20;55.80;;;;;;7397164;19;1053;-72
2024/01/14 02:27:00;;;;;;;;;;;15.40;55.70;;;;;;7396827;19;1138;-72
2024/01/14 02:29:28;;;;;;;;;;;15.50;55.30;;;;;;7399206;19;1593;-72
2024/01/14 02:31:53;;;;;;;;;;;15.60;54.90;;;;;;7401113;19;875;-72
2024/01/14 02:34:19;;;;;;;;;;;15.80;54.70;;;;;;7396122;19;1077;-72
2024/01/14 02:36:44;;;;;;;;;;;15.90;54.50;;;;;;7401804;19;1847;-72
2024/01/14 02:39:10;;;;;;;;;;;16.00;54.20;;;;;;7395086;19;1505;-72
2024/01/14 02:41:35;;;;;;;;;;;16.10;54.10;;;;;;7399297;19;1924;-72
2024/01/14 02:44:00;;;;;;;;;;;16.10;54.10;;;;;;7396740;19;1566;-72
2024/01/14 02:46:27;;;;;;;;;;;16.10;54.00;;;;;;7397830;19;1475;-72
2024/01/14 02:48:52;;;;;;;;;;;16.20;53.90;;;;;;7399678;19;1572;-72
2024/01/14 02:51:18;;;;;;;;;;;16.30;53.80;;;;;;7396628;19;1174;-72
2024/01/14 02:53:43;;;;;;;;;;;16.30;53.50;;;;;;7396893;19;1225;-72
2024/01/14 02:56:10;;;;;;;;;;;16.40;53.40;;;;;;7396229;19;788;-72
2024/01/14 02:58:35;;;;;;;;;;;16.50;53.30;;;;;;7396916;19;1870;-72
2024/01/14 03:01:01;;;;;;;;;;;16.50;53.10;;;;;;7400177;19;1462;-72
2024/01/14 03:03:26;;;;;;;;;;;16.60;53.10;;;;;;7395750;19;1190;-72
2024/01/14 03:05:52;;;;;;;;;;;16.60;52.90;;;;;;7396277;19;1319;-72
2024/01/14 03:08:20;;;;;;;;;;;16.70;52.80;;;;;;7394384;19;1601;-72
2024/01/14 03:10:46;;;;;;;;;;;16.80;52.70;;;;;;7399452;19;1624;-72
2024/01/14 03:13:13;;;;;;;;;;;16.80;52.60;;;;;;7395180;19;1724;-72
2024/01/14 03:15:39;;;;;;;;;;;16.90;52.50;;;;;;7398382;19;1445;-72
2024/01/14 03:18:04;;;;;;;;;;;16.90;52.40;;;;;;7393245;19;1846;-72
2024/01/14 03:20:30;;;;;;;;;;;16.90;52.40;;;;;;7398456;19;1511;-72
2024/01/14 03:22:56;;;;;;;;;;;16.90;52.40;;;;;;7398489;19;1522;-72
2024/01/14 03:25:21;;;;;;;;;;;16.90;52.40;;;;;;7396537;19;1070;-72
2024/01/14 03:27:46;;;;;;;;;;;16.90;52.40;;;;;;7394657;19;979;-72
2024/01/14 03:30:12;;;;;;;;;;;16.90;52.40;;;;;;7399096;19;1608;-72
2024/01/14 03:32:38;;;;;;;;;;;16.90;52.40;;;;;;7398973;19;1488;-72
2024/01/14 03:35:04;;;;;;;;;;;16.90;52.50;;;;;;7394409;19;848;-72
2024/01/14 03:37:29;;;;;;;;;;;16.90;52.50;;;;;;7397777;19;1862;-72
2024/01/14 03:39:55;;;;;;;;;;;16.90;52.50;;;;;;7394555;19;997;-72
2024/01/14 03:42:21;;;;;;;;;;;16.80;52.30;;;;;;7398042;19;1564;-72
2024/01/14 03:44:46;;;;;;;;;;;16.90;52.50;;;;;;7397914;19;1551;-72
2024/01/14 03:47:11;;;;;;;;;;;16.90;52.40;;;;;;7399009;19;1451;-72
2024/01/14 03:49:37;;;;;;;;;;;16.90;52.40;;;;;;7393115;19;859;-72
2024/01/14 03:52:03;;;;;;;;;;;17.00;52.40;;;;;;7396034;19;1569;-72
2024/01/14 03:54:28;;;;;;;;;;;17.00;52.40;;;;;;7394645;19;1259;-72
2024/01/14 03:56:54;;;;;;;;;;;16.90;52.30;;;;;;7394909;19;1849;-72
2024/01/14 03:59:19;;;;;;;;;;;17.00;52.30;;;;;;7398606;19;1734;-72
2024/01/14 04:01:44;;;;;;;;;;;17.10;52.20;;;;;;7398388;19;1523;-72
2024/01/14 04:04:10;;;;;;;;;;;17.00;52.70;;;;;;7395623;19;978;-72
2024/01/14 04:06:35;;;;;;;;;;;17.10;52.00;;;;;;7394529;19;1060;-72
2024/01/14 04:09:01;;;;;;;;;;;17.00;52.00;;;;;;7393895;19;1296;-72
2024/01/14 04:11:26;;;;;;;;;;;17.00;52.30;;;;;;7395493;19;1542;-72
2024/01/14 04:13:52;;;;;;;;;;;17.00;52.50;;;;;;7395585;19;2152;-72
2024/01/14 04:16:18;;;;;;;;;;;16.90;52.40;;;;;;7396532;19;2067;-72
2024/01/14 04:18:43;;;;;;;;;;;16.90;52.40;;;;;;7393486;19;1057;-72
2024/01/14 04:21:08;;;;;;;;;;;16.90;52.30;;;;;;7398517;19;1477;-72
2024/01/14 04:23:34;;;;;;;;;;;17.00;52.40;;;;;;7393421;19;800;-72
2024/01/14 04:26:03;;;;;;;;;;;16.90;52.30;;;;;;7394352;19;1372;-72
2024/01/14 04:28:28;;;;;;;;;;;16.90;52.30;;;;;;7394507;19;1515;-72
2024/01/14 04:30:54;;;;;;;;;;;17.00;52.30;;;;;;7397472;19;1444;-72
2024/01/14 04:33:19;;;;;;;;;;;17.00;52.80;;;;;;7395916;19;1873;-72
2024/01/14 04:35:45;;;;;;;;;;;17.00;52.30;;;;;;7399764;19;1776;-72
2024/01/14 04:38:11;;;;;;;;;;;17.00;52.20;;;;;;7392821;19;1829;-72
2024/01/14 04:40:36;;;;;;;;;;;17.10;52.20;;;;;;7393388;19;914;-72
2024/01/14 04:43:03;;;;;;;;;;;17.10;52.00;;;;;;7393551;19;2911;-72
2024/01/14 04:45:28;;;;;;;;;;;17.10;51.90;;;;;;7393118;19;1302;-72
2024/01/14 04:47:54;;;;;;;;;;;17.10;52.00;;;;;;7392822;19;1086;-72
2024/01/14 04:50:19;;;;;;;;;;;17.00;52.00;;;;;;7396911;19;1843;-72
2024/01/14 04:52:44;;;;;;;;;;;17.00;52.00;;;;;;7395303;19;1506;-72
2024/01/14 04:55:10;;;;;;;;;;;17.10;52.10;;;;;;7393154;19;1162;-72
2024/01/14 04:57:35;;;;;;;;;;;17.00;52.10;;;;;;7392691;19;1855;-72
2024/01/14 05:00:02;;;;;;;;;;;17.00;52.20;;;;;;7395355;19;1614;-72
2024/01/14 05:02:27;;;;;;;;;;;17.00;52.10;;;;;;7398966;19;2657;-72
2024/01/14 05:04:53;;;;;;;;;;;17.10;52.20;;;;;;7400979;19;919;-72
2024/01/14 05:07:18;;;;;;;;;;;17.10;51.90;;;;;;7401675;19;1524;-72
2024/01/14 05:09:43;;;;;;;;;;;17.10;51.90;;;;;;7400061;19;833;-72
2024/01/14 05:12:09;;;;;;;;;;;17.10;51.90;;;;;;7398525;19;1748;-72
2024/01/14 05:14:34;;;;;;;;;;;17.10;51.80;;;;;;7402205;19;1592;-72
2024/01/14 05:17:00;;;;;;;;;;;17.20;51.90;;;;;;7398414;19;1851;-72
2024/01/14 05:19:25;;;;;;;;;;;17.20;51.80;;;;;;7399703;19;1478;-72
2024/01/14 05:21:51;;;;;;;;;;;17.20;51.80;;;;;;7402590;19;1759;-72
2024/01/14 05:24:16;;;;;;;;;;;17.20;51.60;;;;;;7399462;19;796;-72
2024/01/14 05:26:42;;;;;;;;;;;17.20;51.70;;;;;;7400874;19;1529;-72
2024/01/14 05:29:07;;;;;;;;;;;17.10;51.70;;;;;;7401940;19;1693;-72
2024/01/14 05:31:33;;;;;;;;;;;17.10;51.90;;;;;;7403992;19;1877;-72
2024/01/14 05:33:58;;;;;;;;;;;17.10;51.80;;;;;;7400836;19;802;-72
2024/01/14 05:36:24;;;;;;;;;;;17.10;51.90;;;;;;7399871;19;1857;-72
2024/01/14 05:38:49;;;;;;;;;;;17.10;52.00;;;;;;7399666;19;831;-72
2024/01/14 05:41:15;;;;;;;;;;;17.00;51.90;;;;;;7401035;19;757;-72
2024/01/14 05:43:40;;;;;;;;;;;17.00;52.00;;;;;;7399669;19;1502;-72
2024/01/14 05:46:05;;;;;;;;;;;17.10;51.80;;;;;;7399057;19;780;-72
2024/01/14 05:48:31;;;;;;;;;;;17.10;51.90;;;;;;7397895;19;903;-72
2024/01/14 05:50:56;;;;;;;;;;;17.10;51.80;;;;;;7398615;19;986;-72
2024/01/14 05:53:22;;;;;;;;;;;17.10;51.70;;;;;;7399489;19;1465;-72
2024/01/14 05:55:47;;;;;;;;;;;17.10;51.70;;;;;;7398915;19;784;-72
2024/01/14 05:58:13;;;;;;;;;;;17.20;51.70;;;;;;7399428;19;1846;-72
2024/01/14 06:00:38;;;;;;;;;;;17.20;51.70;;;;;;7398710;19;886;-72
2024/01/14 06:03:04;;;;;;;;;;;17.20;51.60;;;;;;7401278;19;1578;-72
2024/01/14 06:05:29;;;;;;;;;;;17.20;51.60;;;;;;7399302;19;819;-72
2024/01/14 06:07:55;;;;;;;;;;;17.30;51.50;;;;;;7396658;19;1263;-72
2024/01/14 06:10:20;;;;;;;;;;;17.20;51.60;;;;;;7397099;19;1109;-72
2024/01/14 06:12:46;;;;;;;;;;;17.20;51.80;;;;;;7400248;19;1582;-72
2024/01/14 06:15:11;;;;;;;;;;;17.10;51.80;;;;;;7401164;19;1589;-72
2024/01/14 06:17:37;;;;;;;;;;;17.10;51.80;;;;;;7399858;19;1853;-72
2024/01/14 06:20:03;;;;;;;;;;;17.10;51.90;;;;;;7400078;19;1723;-72
2024/01/14 06:22:29;;;;;;;;;;;17.10;51.80;;;;;;7400574;19;1685;-72
2024/01/14 06:24:55;;;;;;;;;;;17.20;51.80;;;;;;7398637;19;1638;-72
2024/01/14 06:27:20;;;;;;;;;;;17.10;51.70;;;;;;7396663;19;903;-72
2024/01/14 06:29:45;;;;;;;;;;;17.20;51.70;;;;;;7400183;19;1831;-72
2024/01/14 06:32:11;;;;;;;;;;;17.20;51.60;;;;;;7400542;19;1439;-72
2024/01/14 06:34:36;;;;;;;;;;;17.20;51.60;;;;;;7396924;19;1044;-72
2024/01/14 06:37:03;;;;;;;;;;;17.20;51.70;;;;;;7397106;19;1853;-72
2024/01/14 06:39:28;;;;;;;;;;;17.20;51.50;;;;;;7397381;19;1247;-72
2024/01/14 06:41:54;;;;;;;;;;;17.30;51.50;;;;;;7396902;19;1195;-72
2024/01/14 06:44:19;;;;;;;;;;;17.30;51.50;;;;;;7398606;19;2058;-72
2024/01/14 06:46:45;;;;;;;;;;;17.20;51.50;;;;;;7397065;19;879;-73
2024/01/14 06:49:10;;;;;;;;;;;17.20;51.60;;;;;;7396595;19;1485;-73
2024/01/14 06:51:45;;;;;;;;;;;17.30;51.60;;;;;;7401590;19;1815;-73
2024/01/14 06:54:10;;;;;;;;;;;17.20;51.60;;;;;;7397678;19;1548;-72
2024/01/14 06:56:45;;;;;;;;;;;17.20;51.80;;;;;;7395453;19;1837;-72
2024/01/14 06:59:14;;;;;;;;;;;17.10;51.70;;;;;;7399946;19;1514;-72
2024/01/14 07:01:39;;;;;;;;;;;17.10;51.70;;;;;;7398662;19;792;-72
2024/01/14 07:04:05;;;;;;;;;;;17.20;51.80;;;;;;7398042;19;2520;-72
2024/01/14 07:06:30;;;;;;;;;;;17.10;51.70;;;;;;7393476;19;1746;-72
2024/01/14 07:08:56;;;;;;;;;;;17.10;51.70;;;;;;7389857;19;1359;-72
2024/01/14 07:11:21;;;;;;;;;;;17.20;51.70;;;;;;7392902;19;1215;-73
2024/01/14 07:13:47;;;;;;;;;;;17.20;51.60;;;;;;7396500;19;1688;-73
2024/01/14 07:16:12;;;;;;;;;;;17.20;51.60;;;;;;7395431;19;879;-73
2024/01/14 07:18:38;;;;;;;;;;;17.20;51.60;;;;;;7393893;19;1845;-73
2024/01/14 07:21:04;;;;;;;;;;;17.20;51.60;;;;;;7401551;19;1704;-73
2024/01/14 07:23:29;;;;;;;;;;;17.10;51.70;;;;;;7396493;19;1270;-72
2024/01/14 07:25:54;;;;;;;;;;;17.10;51.70;;;;;;7395992;19;803;-73
2024/01/14 07:28:20;;;;;;;;;;;17.10;51.70;;;;;;7395876;19;1682;-72
2024/01/14 07:30:46;;;;;;;;;;;17.10;51.60;;;;;;7396085;19;788;-72
2024/01/14 07:33:11;;;;;;;;;;;17.10;51.70;;;;;;7395941;19;1423;-72
2024/01/14 07:35:36;;;;;;;;;;;17.20;51.80;;;;;;7401610;19;1639;-73
2024/01/14 07:38:02;;;;;;;;;;;17.20;51.60;;;;;;7394276;19;1841;-73
2024/01/14 07:40:28;;;;;;;;;;;17.20;51.80;;;;;;7395394;19;851;-73
2024/01/14 07:42:53;;;;;;;;;;;17.20;51.60;;;;;;7397182;19;1551;-73
2024/01/14 07:45:19;;;;;;;;;;;17.30;51.70;;;;;;7393265;19;3048;-73
2024/01/14 07:47:44;;;;;;;;;;;17.30;51.70;;;;;;7395164;19;894;-73
2024/01/14 07:50:09;;;;;;;;;;;17.20;51.60;;;;;;7391462;19;946;-73
2024/01/14 07:52:35;;;;;;;;;;;17.20;51.60;;;;;;7395153;19;847;-73
2024/01/14 07:55:00;;;;;;;;;;;17.10;51.60;;;;;;7396148;19;1498;-73
2024/01/14 07:57:26;;;;;;;;;;;17.10;51.70;;;;;;7395367;19;1818;-72
2024/01/14 07:59:51;;;;;;;;;;;17.10;51.70;;;;;;7396246;19;1413;-73
2024/01/14 08:02:17;;;;;;;;;;;17.10;51.70;;;;;;7399593;19;837;-73
2024/01/14 08:04:42;;;;;;;;;;;17.10;51.70;;;;;;7395109;19;3272;-73
2024/01/14 08:07:07;;;;;;;;;;;17.10;51.90;;;;;;7393944;19;1358;-72
2024/01/14 08:09:33;;;;;;;;;;;17.10;51.90;;;;;;7394435;19;1034;-73
2024/01/14 08:11:58;;;;;;;;;;;17.10;51.90;;;;;;7396221;19;1639;-73
2024/01/14 08:14:24;;;;;;;;;;;17.10;52.60;;;;;;7397165;19;1423;-73
2024/01/14 08:16:49;;;;;;;;;;;17.00;52.00;;;;;;7395149;19;1846;-73
2024/01/14 08:19:15;;;;;;;;;;;17.00;52.00;;;;;;7394546;19;1448;-73
2024/01/14 08:21:43;;;;;;;;;;;17.00;52.00;;;;;;7397290;19;1664;-72
2024/01/14 08:24:09;;;;;;;;;;;17.10;51.90;;;;;;7397292;19;1538;-73
2024/01/14 08:26:41;;;;;;;;;;;17.10;51.90;;;;;;7394213;19;1676;-73
2024/01/14 08:29:07;;;;;;;;;;;17.10;51.90;;;;;;7393903;19;994;-73
2024/01/14 08:31:33;;;;;;;;;;;17.10;51.90;;;;;;7397869;19;1586;-73
2024/01/14 08:33:59;;;;;;;;;;;17.10;52.00;;;;;;7393649;19;1528;-72
2024/01/14 08:36:28;;;;;;;;;;;17.10;51.90;;;;;;7398267;19;1430;-73
2024/01/14 08:38:53;;;;;;;;;;;17.10;51.90;;;;;;7401142;19;1122;-72
2024/01/14 08:41:24;;;;;;;;;;;17.10;52.40;;;;;;7402328;19;1605;-73
2024/01/14 08:43:53;;;;;;;;;;;17.10;52.20;;;;;;7402715;19;2455;-73
2024/01/14 08:46:18;;;;;;;;;;;17.10;52.00;;;;;;7403907;19;1501;-73
2024/01/14 08:48:44;;;;;;;;;;;17.10;52.00;;;;;;7400065;19;1217;-73
2024/01/14 08:51:09;;;;;;;;;;;17.00;52.10;;;;;;7402463;19;1056;-73
2024/01/14 08:53:35;;;;;;;;;;;17.00;52.00;;;;;;7402455;19;1662;-72
2024/01/14 08:56:00;;;;;;;;;;;17.10;52.00;;;;;;7402521;19;812;-73
2024/01/14 08:58:26;;;;;;;;;;;17.00;52.10;;;;;;7401306;19;1842;-73
2024/01/14 09:00:52;;;;;;;;;;;17.00;52.00;;;;;;7404195;19;1570;-73
2024/01/14 09:03:17;;;;;;;;;;;17.00;52.00;;;;;;7400692;19;1591;-73
2024/01/14 09:05:43;;;;;;;;;;;17.10;52.00;;;;;;7402754;19;2538;-72
2024/01/14 09:08:08;;;;;;;;;;;17.10;52.10;;;;;;7401585;19;1633;-72
2024/01/14 09:10:34;;;;;;;;;;;17.10;52.20;;;;;;7400661;19;1042;-72
2024/01/14 09:12:59;;;;;;;;;;;17.10;52.80;;;;;;7403380;19;1493;-73
2024/01/14 09:15:25;;;;;;;;;;;17.10;52.30;;;;;;7403173;19;1587;-73
2024/01/14 09:17:51;;;;;;;;;;;17.10;52.30;;;;;;7398838;19;1837;-73
2024/01/14 09:20:17;;;;;;;;;;;17.10;52.50;;;;;;7401035;19;1449;-73
2024/01/14 09:22:42;;;;;;;;;;;17.10;52.60;;;;;;7402436;19;1622;-73
2024/01/14 09:25:08;;;;;;;;;;;17.10;52.60;;;;;;7401848;19;1603;-73
2024/01/14 09:27:34;;;;;;;;;;;17.10;52.60;;;;;;7400337;19;1700;-72
2024/01/14 09:30:00;;;;;;;;;;;17.20;52.60;;;;;;7400194;19;1517;-72
2024/01/14 09:32:25;;;;;;;;;;;17.10;52.50;;;;;;7402854;19;1512;-72
2024/01/14 09:34:51;;;;;;;;;;;17.10;52.50;;;;;;7400374;19;1607;-72
2024/01/14 09:37:16;;;;;;;;;;;17.10;52.40;;;;;;7395262;19;2530;-72
2024/01/14 09:39:42;;;;;;;;;;;17.10;52.30;;;;;;7400249;19;2619;-72
2024/01/14 09:42:10;;;;;;;;;;;17.10;52.20;;;;;;7400857;19;1721;-73
2024/01/14 09:44:36;;;;;;;;;;;17.20;52.20;;;;;;7402114;19;2121;-72
2024/01/14 09:47:02;;;;;;;;;;;17.20;52.30;;;;;;7399897;19;1810;-72
2024/01/14 09:49:27;;;;;;;;;;;17.20;52.70;;;;;;7398587;19;1837;-72
2024/01/14 09:51:55;;;;;;;;;;;17.20;52.00;;;;;;7399998;19;1776;-72
2024/01/14 09:54:20;;;;;;;;;;;17.30;52.00;;;;;;7398550;19;2240;-72
2024/01/14 09:56:46;;;;;;;;;;;17.30;52.00;;;;;;7399332;19;2826;-73
2024/01/14 09:59:13;;;;;;;;;;;17.30;52.10;;;;;;7401767;19;1562;-73
2024/01/14 10:01:38;;;;;;;;;;;17.40;52.00;;;;;;7397990;19;2460;-72
2024/01/14 10:04:06;;;;;;;;;;;17.40;52.10;;;;;;7397398;19;1690;-72
2024/01/14 10:06:31;;;;;;;;;;;17.40;52.00;;;;;;7398168;19;3107;-72
2024/01/14 10:08:57;;;;;;;;;;;17.40;52.00;;;;;;7397530;19;1590;-72
2024/01/14 10:11:23;;;;;;;;;;;17.40;52.00;;;;;;7397209;19;1495;-72
2024/01/14 10:13:48;;;;;;;;;;;17.40;52.00;;;;;;7400605;19;1607;-72
2024/01/14 10:16:14;;;;;;;;;;;17.40;52.00;;;;;;7400621;19;1496;-72
2024/01/14 10:18:39;;;;;;;;;;;17.40;52.10;;;;;;7394681;19;2321;-72
2024/01/14 10:21:05;;;;;;;;;;;17.40;52.00;;;;;;7399526;19;1895;-72
2024/01/14 10:23:30;;;;;;;;;;;17.40;52.00;;;;;;7399224;19;2157;-72
2024/01/14 10:26:01;;;;;;;;;;;17.40;52.10;;;;;;7399979;19;1763;-72
2024/01/14 10:28:35;;;;;;;;;;;17.40;52.10;;;;;;7396510;19;1627;-72
2024/01/14 10:31:06;;;;;;;;;;;17.40;52.10;;;;;;7399368;19;2869;-72
2024/01/14 10:33:35;;;;;;;;;;;17.40;52.10;;;;;;7399639;19;3769;-72
2024/01/14 10:36:00;;;;;;;;;;;17.40;52.00;;;;;;7396443;19;3080;-72
2024/01/14 10:38:26;;;;;;;;;;;17.40;52.00;;;;;;7398135;19;1867;-72
2024/01/14 10:40:52;;;;;;;;;;;17.50;52.10;;;;;;7398025;19;1474;-72
2024/01/14 10:43:17;;;;;;;;;;;17.40;51.90;;;;;;7396215;19;2536;-72
2024/01/14 10:45:44;;;;;;;;;;;17.50;52.10;;;;;;7396312;19;2265;-72
2024/01/14 10:48:10;;;;;;;;;;;17.50;52.20;;;;;;7398218;19;1565;-72
2024/01/14 10:50:36;;;;;;;;;;;17.50;52.80;;;;;;7399510;19;1860;-72
2024/01/14 10:53:01;;;;;;;;;;;17.40;52.20;;;;;;7399840;19;2630;-72
2024/01/14 10:55:33;;;;;;;;;;;17.40;52.20;;;;;;7398566;19;1566;-72
2024/01/14 10:57:58;;;;;;;;;;;17.40;52.10;;;;;;7399621;19;1854;-72
2024/01/14 11:00:24;;;;;;;;;;;17.50;52.20;;;;;;7396653;19;1602;-72
2024/01/14 11:02:49;;;;;;;;;;;17.50;52.10;;;;;;7397508;19;2369;-72
2024/01/14 11:05:14;;;;;;;;;;;17.50;52.20;;;;;;7395551;19;2044;-72
2024/01/14 11:07:40;;;;;;;;;;;17.50;52.20;;;;;;7397848;19;2605;-72
2024/01/14 11:10:07;;;;;;;;;;;17.50;52.30;;;;;;7400495;19;2001;-72
2024/01/14 11:12:48;;;;;;;;;;;17.50;52.20;;;;;;7396698;19;1597;-72
2024/01/14 11:15:29;;;;;;;;;;;17.50;52.20;;;;;;7397010;19;1689;-72
2024/01/14 11:17:54;;;;;;;;;;;17.50;52.00;;;;;;7399125;19;1850;-73
2024/01/14 11:20:20;;;;;;;;;;;17.60;52.20;;;;;;7398673;19;1579;-72
2024/01/14 11:22:45;;;;;;;;;;;17.60;52.20;;;;;;7396449;19;1261;-72
2024/01/14 11:25:15;;;;;;;;;;;17.60;52.10;;;;;;7396926;19;1547;-72
2024/01/14 11:27:41;;;;;;;;;;;17.60;52.10;;;;;;7398826;19;1639;-72
2024/01/14 11:30:11;;;;;;;;;;;17.60;52.10;;;;;;7398646;19;2433;-72
2024/01/14 11:32:36;;;;;;;;;;;17.60;52.10;;;;;;7402296;19;1555;-72
2024/01/14 11:35:02;;;;;;;;;;;17.60;52.10;;;;;;7396520;19;1744;-72
2024/01/14 11:37:37;;;;;;;;;;;17.60;52.00;;;;;;7397608;19;1854;-72
2024/01/14 11:40:06;;;;;;;;;;;17.60;52.00;;;;;;7398301;19;1121;-72
2024/01/14 11:42:35;;;;;;;;;;;17.60;52.00;;;;;;7399339;19;1479;-72
2024/01/14 11:45:00;;;;;;;;;;;17.60;52.00;;;;;;7397989;19;1674;-72
2024/01/14 11:47:35;;;;;;;;;;;17.60;52.00;;;;;;7396623;19;1197;-72
2024/01/14 11:50:02;;;;;;;;;;;17.60;52.00;;;;;;7398089;19;1775;-72
2024/01/14 11:52:27;;;;;;;;;;;17.60;52.00;;;;;;7399782;19;1479;-72
2024/01/14 11:54:53;;;;;;;;;;;17.60;51.90;;;;;;7401964;19;1236;-72
2024/01/14 11:57:23;;;;;;;;;;;17.60;51.80;;;;;;7397615;19;1846;-72
2024/01/14 11:59:48;;;;;;;;;;;17.60;51.90;;;;;;7401316;19;1615;-72
2024/01/14 12:02:15;;;;;;;;;;;17.60;51.90;;;;;;7396793;19;1619;-72
2024/01/14 12:04:40;;;;;;;;;;;17.60;51.90;;;;;;7398344;19;1769;-72
2024/01/14 12:07:06;;;;;;;;;;;17.60;51.90;;;;;;7396514;19;2513;-72
2024/01/14 12:09:31;;;;;;;;;;;17.60;51.90;;;;;;7396530;19;2969;-72
2024/01/14 12:11:57;;;;;;;;;;;17.60;51.90;;;;;;7395579;19;1548;-72
2024/01/14 12:14:22;;;;;;;;;;;17.60;51.80;;;;;;7396943;19;1989;-72
2024/01/14 12:16:47;;;;;;;;;;;17.70;51.80;;;;;;7395472;19;1846;-72
2024/01/14 12:19:19;;;;;;;;;;;17.70;51.80;;;;;;7396099;19;1489;-72
2024/01/14 12:21:44;;;;;;;;;;;17.70;51.60;;;;;;7397659;19;1306;-72
2024/01/14 12:24:10;;;;;;;;;;;17.70;51.70;;;;;;7397249;19;1600;-72
2024/01/14 12:26:36;;;;;;;;;;;17.70;51.60;;;;;;7396577;19;1802;-72
2024/01/14 12:29:01;;;;;;;;;;;17.70;51.60;;;;;;7395545;19;1332;-72
2024/01/14 12:31:27;;;;;;;;;;;17.70;51.60;;;;;;7394470;19;1319;-72
2024/01/14 12:33:52;;;;;;;;;;;17.70;51.60;;;;;;7394999;19;1634;-72
2024/01/14 12:36:18;;;;;;;;;;;17.70;51.60;;;;;;7397089;19;1403;-73
2024/01/14 12:38:44;;;;;;;;;;;17.70;51.60;;;;;;7397075;19;1841;-72
2024/01/14 12:41:09;;;;;;;;;;;17.70;51.60;;;;;;7396494;19;1341;-72
2024/01/14 12:43:35;;;;;;;;;;;17.70;51.60;;;;;;7394534;19;1702;-72
2024/01/14 12:46:01;;;;;;;;;;;17.70;51.50;;;;;;7395944;19;1713;-72
2024/01/14 12:48:27;;;;;;;;;;;17.70;51.60;;;;;;7393541;19;1939;-71
2024/01/14 12:50:56;;;;;;;;;;;17.70;51.60;;;;;;7397469;19;1788;-71
2024/01/14 12:53:22;;;;;;;;;;;17.70;51.60;;;;;;7394777;19;1525;-72
2024/01/14 12:55:47;;;;;;;;;;;17.80;51.70;;;;;;7395520;19;1445;-73
2024/01/14 12:58:14;;;;;;;;;;;17.70;51.60;;;;;;7394249;19;1842;-72
2024/01/14 13:00:40;;;;;;;;;;;17.70;51.60;;;;;;7394845;19;2752;-72
2024/01/14 13:03:09;;;;;;;;;;;17.70;51.60;;;;;;7392828;19;1674;-72
2024/01/14 13:05:38;;;;;;;;;;;17.70;51.70;;;;;;7400596;19;1620;-72
2024/01/14 13:08:04;;;;;;;;;;;17.70;51.60;;;;;;7392929;19;2405;-72
2024/01/14 13:10:29;;;;;;;;;;;17.70;51.60;;;;;;7394997;19;1597;-72
2024/01/14 13:12:55;;;;;;;;;;;17.70;51.50;;;;;;7395544;19;1676;-72
2024/01/14 13:15:21;;;;;;;;;;;17.70;51.50;;;;;;7397359;19;1565;-72
2024/01/14 13:17:46;;;;;;;;;;;17.70;51.60;;;;;;7395752;19;1862;-73
2024/01/14 13:20:12;;;;;;;;;;;17.70;51.60;;;;;;7394717;19;1598;-73
2024/01/14 13:22:37;;;;;;;;;;;17.70;51.70;;;;;;7398250;19;1494;-72
2024/01/14 13:25:03;;;;;;;;;;;17.70;51.70;;;;;;7401561;19;1532;-72
2024/01/14 13:27:29;;;;;;;;;;;17.70;51.60;;;;;;7402155;19;1675;-73
2024/01/14 13:29:55;;;;;;;;;;;17.70;51.50;;;;;;7402541;19;2314;-72
2024/01/14 13:32:22;;;;;;;;;;;17.80;51.60;;;;;;7402134;19;1673;-73
2024/01/14 13:34:48;;;;;;;;;;;17.70;51.60;;;;;;7398689;19;1117;-72
2024/01/14 13:37:14;;;;;;;;;;;17.80;51.60;;;;;;7400335;19;1862;-73
2024/01/14 13:39:44;;;;;;;;;;;17.70;51.50;;;;;;7401682;19;1463;-72
2024/01/14 13:42:10;;;;;;;;;;;17.80;51.60;;;;;;7407029;19;1126;-72
2024/01/14 13:44:35;;;;;;;;;;;17.70;51.60;;;;;;7402142;19;1674;-73
2024/01/14 13:47:02;;;;;;;;;;;17.80;51.70;;;;;;7401681;19;1724;-73
2024/01/14 13:49:28;;;;;;;;;;;17.80;51.60;;;;;;7398557;19;1308;-73
2024/01/14 13:51:53;;;;;;;;;;;17.80;51.60;;;;;;7402542;19;831;-72
2024/01/14 13:54:19;;;;;;;;;;;17.80;51.50;;;;;;7401378;19;1469;-72
2024/01/14 13:56:45;;;;;;;;;;;17.80;51.50;;;;;;7401217;19;1858;-72
2024/01/14 13:59:10;;;;;;;;;;;17.80;51.70;;;;;;7399267;19;1307;-72
2024/01/14 14:01:39;;;;;;;;;;;17.80;51.50;;;;;;7400137;19;1702;-72
2024/01/14 14:04:04;;;;;;;;;;;17.80;51.50;;;;;;7401320;19;1526;-72
2024/01/14 14:06:31;;;;;;;;;;;17.90;51.60;;;;;;7402220;19;1445;-72
2024/01/14 14:08:57;;;;;;;;;;;17.80;51.50;;;;;;7397427;19;1545;-72
2024/01/14 14:11:22;;;;;;;;;;;17.90;51.60;;;;;;7400323;19;2527;-72
2024/01/14 14:13:48;;;;;;;;;;;17.80;51.50;;;;;;7397672;19;943;-72
2024/01/14 14:16:14;;;;;;;;;;;17.80;51.50;;;;;;7400918;19;1603;-72
2024/01/14 14:18:39;;;;;;;;;;;17.80;51.60;;;;;;7396891;19;1834;-72
2024/01/14 14:21:05;;;;;;;;;;;17.80;51.60;;;;;;7400897;19;1506;-72
2024/01/14 14:23:31;;;;;;;;;;;17.80;51.50;;;;;;7397223;19;1014;-72